sensor_id;sensor_type;location;lat;lon;timestamp;P1;durP1;ratioP1;P2;durP2;ratioP2
74707;SDS011;63360;50.104;8.074;2024-03-02T00:00:30;21.37;;;10.27;;
74707;SDS011;63360;50.104;8.074;2024-03-02T00:02:56;21.33;;;10.50;;
74707;SDS011;63360;50.104;8.074;2024-03-02T00:05:23;21.65;;;10.45;;
74707;SDS011;63360;50.104;8.074;2024-03-02T00:07:56;18.55;;;10.10;;
74707;SDS011;63360;50.104;8.074;2024-03-02T00:10:26;18.90;;;9.13;;
74707;SDS011;63360;50.104;8.074;2024-03-02T00:13:01;21.03;;;9.53;;
74707;SDS011;63360;50.104;8.074;2024-03-02T00:15:45;20.80;;;9.50;;
74707;SDS011;63360;50.104;8.074;2024-03-02T00:18:14;20.50;;;9.88;;
74707;SDS011;63360;50.104;8.074;2024-03-02T00:20:52;21.67;;;10.32;;
74707;SDS011;63360;50.104;8.074;2024-03-02T00:23:21;24.60;;;10.88;;
74707;SDS011;63360;50.104;8.074;2024-03-02T00:25:49;21.03;;;9.90;;
74707;SDS011;63360;50.104;8.074;2024-03-02T00:30:57;23.50;;;10.77;;
74707;SDS011;63360;50.104;8.074;2024-03-02T00:33:46;20.85;;;9.90;;
74707;SDS011;63360;50.104;8.074;2024-03-02T00:36:15;23.08;;;11.05;;
74707;SDS011;63360;50.104;8.074;2024-03-02T00:38:46;21.67;;;10.30;;
74707;SDS011;63360;50.104;8.074;2024-03-02T00:41:19;23.60;;;11.27;;
74707;SDS011;63360;50.104;8.074;2024-03-02T00:46:23;23.90;;;11.48;;
74707;SDS011;63360;50.104;8.074;2024-03-02T00:49:00;23.55;;;11.93;;
74707;SDS011;63360;50.104;8.074;2024-03-02T00:51:29;33.03;;;13.27;;
74707;SDS011;63360;50.104;8.074;2024-03-02T00:53:58;30.45;;;14.13;;
74707;SDS011;63360;50.104;8.074;2024-03-02T00:56:26;28.70;;;14.05;;
74707;SDS011;63360;50.104;8.074;2024-03-02T00:58:53;24.48;;;11.82;;
74707;SDS011;63360;50.104;8.074;2024-03-02T01:01:19;23.38;;;11.05;;
74707;SDS011;63360;50.104;8.074;2024-03-02T01:03:46;21.10;;;10.70;;
74707;SDS011;63360;50.104;8.074;2024-03-02T01:06:12;24.05;;;10.90;;
74707;SDS011;63360;50.104;8.074;2024-03-02T01:08:39;24.70;;;11.55;;
74707;SDS011;63360;50.104;8.074;2024-03-02T01:11:05;27.83;;;11.88;;
74707;SDS011;63360;50.104;8.074;2024-03-02T01:13:32;22.65;;;10.98;;
74707;SDS011;63360;50.104;8.074;2024-03-02T01:15:59;22.97;;;10.80;;
74707;SDS011;63360;50.104;8.074;2024-03-02T01:18:26;20.98;;;10.57;;
74707;SDS011;63360;50.104;8.074;2024-03-02T01:20:52;23.52;;;10.60;;
74707;SDS011;63360;50.104;8.074;2024-03-02T01:23:21;21.85;;;10.85;;
74707;SDS011;63360;50.104;8.074;2024-03-02T01:25:48;21.50;;;10.32;;
74707;SDS011;63360;50.104;8.074;2024-03-02T01:28:15;22.00;;;10.40;;
74707;SDS011;63360;50.104;8.074;2024-03-02T01:30:41;21.00;;;10.77;;
74707;SDS011;63360;50.104;8.074;2024-03-02T01:33:08;22.02;;;10.57;;
74707;SDS011;63360;50.104;8.074;2024-03-02T01:35:35;23.38;;;10.35;;
74707;SDS011;63360;50.104;8.074;2024-03-02T01:38:02;23.67;;;10.77;;
74707;SDS011;63360;50.104;8.074;2024-03-02T01:40:28;24.07;;;11.03;;
74707;SDS011;63360;50.104;8.074;2024-03-02T01:42:55;22.38;;;11.07;;
74707;SDS011;63360;50.104;8.074;2024-03-02T01:45:21;21.85;;;10.52;;
74707;SDS011;63360;50.104;8.074;2024-03-02T01:47:48;20.58;;;10.25;;
74707;SDS011;63360;50.104;8.074;2024-03-02T01:50:14;22.70;;;10.77;;
74707;SDS011;63360;50.104;8.074;2024-03-02T01:52:41;23.70;;;11.13;;
74707;SDS011;63360;50.104;8.074;2024-03-02T01:55:08;21.13;;;10.38;;
74707;SDS011;63360;50.104;8.074;2024-03-02T01:57:34;25.27;;;11.52;;
74707;SDS011;63360;50.104;8.074;2024-03-02T02:00:01;22.45;;;11.35;;
74707;SDS011;63360;50.104;8.074;2024-03-02T02:02:27;23.35;;;10.82;;
74707;SDS011;63360;50.104;8.074;2024-03-02T02:04:53;22.10;;;10.50;;
74707;SDS011;63360;50.104;8.074;2024-03-02T02:07:20;21.08;;;10.80;;
74707;SDS011;63360;50.104;8.074;2024-03-02T02:09:47;23.30;;;11.82;;
74707;SDS011;63360;50.104;8.074;2024-03-02T02:12:13;23.83;;;11.65;;
74707;SDS011;63360;50.104;8.074;2024-03-02T02:14:48;25.80;;;12.05;;
74707;SDS011;63360;50.104;8.074;2024-03-02T02:17:15;28.03;;;12.60;;
74707;SDS011;63360;50.104;8.074;2024-03-02T02:19:42;23.83;;;11.70;;
74707;SDS011;63360;50.104;8.074;2024-03-02T02:22:09;27.80;;;12.57;;
74707;SDS011;63360;50.104;8.074;2024-03-02T02:24:39;25.67;;;11.40;;
74707;SDS011;63360;50.104;8.074;2024-03-02T02:27:07;26.23;;;11.77;;
74707;SDS011;63360;50.104;8.074;2024-03-02T02:29:34;23.20;;;11.00;;
74707;SDS011;63360;50.104;8.074;2024-03-02T02:32:01;24.25;;;11.75;;
74707;SDS011;63360;50.104;8.074;2024-03-02T02:34:27;24.17;;;11.52;;
74707;SDS011;63360;50.104;8.074;2024-03-02T02:36:54;25.77;;;12.60;;
74707;SDS011;63360;50.104;8.074;2024-03-02T02:39:21;26.77;;;12.38;;
74707;SDS011;63360;50.104;8.074;2024-03-02T02:41:48;24.03;;;11.53;;
74707;SDS011;63360;50.104;8.074;2024-03-02T02:44:15;23.92;;;12.13;;
74707;SDS011;63360;50.104;8.074;2024-03-02T02:46:41;22.90;;;11.18;;
74707;SDS011;63360;50.104;8.074;2024-03-02T02:49:07;24.80;;;11.57;;
74707;SDS011;63360;50.104;8.074;2024-03-02T02:51:34;23.70;;;11.30;;
74707;SDS011;63360;50.104;8.074;2024-03-02T02:54:00;25.23;;;12.27;;
74707;SDS011;63360;50.104;8.074;2024-03-02T02:56:27;23.35;;;11.38;;
74707;SDS011;63360;50.104;8.074;2024-03-02T02:58:53;22.20;;;11.18;;
74707;SDS011;63360;50.104;8.074;2024-03-02T03:01:19;25.13;;;10.73;;
74707;SDS011;63360;50.104;8.074;2024-03-02T03:03:46;24.60;;;11.30;;
74707;SDS011;63360;50.104;8.074;2024-03-02T03:06:12;24.90;;;11.63;;
74707;SDS011;63360;50.104;8.074;2024-03-02T03:08:39;24.20;;;11.70;;
74707;SDS011;63360;50.104;8.074;2024-03-02T03:11:05;25.88;;;11.32;;
74707;SDS011;63360;50.104;8.074;2024-03-02T03:13:32;23.60;;;11.70;;
74707;SDS011;63360;50.104;8.074;2024-03-02T03:15:58;25.48;;;10.57;;
74707;SDS011;63360;50.104;8.074;2024-03-02T03:18:25;25.17;;;12.70;;
74707;SDS011;63360;50.104;8.074;2024-03-02T03:20:52;24.80;;;11.43;;
74707;SDS011;63360;50.104;8.074;2024-03-02T03:23:18;24.85;;;11.55;;
74707;SDS011;63360;50.104;8.074;2024-03-02T03:25:44;24.33;;;11.68;;
74707;SDS011;63360;50.104;8.074;2024-03-02T03:28:11;23.17;;;10.85;;
74707;SDS011;63360;50.104;8.074;2024-03-02T03:30:37;25.07;;;12.10;;
74707;SDS011;63360;50.104;8.074;2024-03-02T03:33:04;21.77;;;11.23;;
74707;SDS011;63360;50.104;8.074;2024-03-02T03:35:34;25.15;;;11.93;;
74707;SDS011;63360;50.104;8.074;2024-03-02T03:38:01;24.95;;;11.32;;
74707;SDS011;63360;50.104;8.074;2024-03-02T03:40:27;24.73;;;11.55;;
74707;SDS011;63360;50.104;8.074;2024-03-02T03:42:53;26.87;;;11.80;;
74707;SDS011;63360;50.104;8.074;2024-03-02T03:45:22;23.85;;;10.55;;
74707;SDS011;63360;50.104;8.074;2024-03-02T03:47:48;24.98;;;11.65;;
74707;SDS011;63360;50.104;8.074;2024-03-02T03:50:14;23.73;;;11.27;;
74707;SDS011;63360;50.104;8.074;2024-03-02T03:52:41;28.23;;;12.27;;
74707;SDS011;63360;50.104;8.074;2024-03-02T03:55:07;24.97;;;11.53;;
74707;SDS011;63360;50.104;8.074;2024-03-02T03:57:34;27.50;;;11.68;;
74707;SDS011;63360;50.104;8.074;2024-03-02T04:00:01;25.33;;;11.52;;
74707;SDS011;63360;50.104;8.074;2024-03-02T04:02:28;27.42;;;12.48;;
74707;SDS011;63360;50.104;8.074;2024-03-02T04:04:54;24.55;;;11.32;;
74707;SDS011;63360;50.104;8.074;2024-03-02T04:07:20;25.93;;;12.00;;
74707;SDS011;63360;50.104;8.074;2024-03-02T04:09:47;25.67;;;12.27;;
74707;SDS011;63360;50.104;8.074;2024-03-02T04:12:13;26.38;;;11.70;;
74707;SDS011;63360;50.104;8.074;2024-03-02T04:14:40;28.88;;;12.32;;
74707;SDS011;63360;50.104;8.074;2024-03-02T04:17:08;27.48;;;11.77;;
74707;SDS011;63360;50.104;8.074;2024-03-02T04:19:35;25.90;;;12.07;;
74707;SDS011;63360;50.104;8.074;2024-03-02T04:22:02;28.25;;;11.95;;
74707;SDS011;63360;50.104;8.074;2024-03-02T04:24:43;26.55;;;11.70;;
74707;SDS011;63360;50.104;8.074;2024-03-02T04:27:10;25.70;;;11.52;;
74707;SDS011;63360;50.104;8.074;2024-03-02T04:29:36;27.40;;;12.23;;
74707;SDS011;63360;50.104;8.074;2024-03-02T04:32:02;27.77;;;12.37;;
74707;SDS011;63360;50.104;8.074;2024-03-02T04:34:29;26.02;;;11.13;;
74707;SDS011;63360;50.104;8.074;2024-03-02T04:36:55;25.20;;;11.68;;
74707;SDS011;63360;50.104;8.074;2024-03-02T04:39:21;26.95;;;12.50;;
74707;SDS011;63360;50.104;8.074;2024-03-02T04:41:48;21.70;;;10.65;;
74707;SDS011;63360;50.104;8.074;2024-03-02T04:44:14;25.47;;;11.30;;
74707;SDS011;63360;50.104;8.074;2024-03-02T04:46:41;24.02;;;11.25;;
74707;SDS011;63360;50.104;8.074;2024-03-02T04:49:07;26.17;;;11.32;;
74707;SDS011;63360;50.104;8.074;2024-03-02T04:51:34;24.58;;;11.32;;
74707;SDS011;63360;50.104;8.074;2024-03-02T04:54:00;22.73;;;10.43;;
74707;SDS011;63360;50.104;8.074;2024-03-02T04:56:26;25.80;;;11.30;;
74707;SDS011;63360;50.104;8.074;2024-03-02T04:58:59;24.13;;;10.43;;
74707;SDS011;63360;50.104;8.074;2024-03-02T05:01:25;25.33;;;11.02;;
74707;SDS011;63360;50.104;8.074;2024-03-02T05:03:52;23.40;;;11.07;;
74707;SDS011;63360;50.104;8.074;2024-03-02T05:06:18;24.90;;;11.13;;
74707;SDS011;63360;50.104;8.074;2024-03-02T05:08:44;22.63;;;10.70;;
74707;SDS011;63360;50.104;8.074;2024-03-02T05:11:11;26.40;;;10.82;;
74707;SDS011;63360;50.104;8.074;2024-03-02T05:13:56;21.83;;;9.88;;
74707;SDS011;63360;50.104;8.074;2024-03-02T05:16:22;24.48;;;10.65;;
74707;SDS011;63360;50.104;8.074;2024-03-02T05:18:49;25.17;;;11.20;;
74707;SDS011;63360;50.104;8.074;2024-03-02T05:21:15;26.43;;;11.20;;
74707;SDS011;63360;50.104;8.074;2024-03-02T05:23:42;23.15;;;11.05;;
74707;SDS011;63360;50.104;8.074;2024-03-02T05:26:08;20.63;;;10.23;;
74707;SDS011;63360;50.104;8.074;2024-03-02T05:28:37;22.40;;;10.63;;
74707;SDS011;63360;50.104;8.074;2024-03-02T05:31:03;22.10;;;10.68;;
74707;SDS011;63360;50.104;8.074;2024-03-02T05:33:30;22.43;;;10.10;;
74707;SDS011;63360;50.104;8.074;2024-03-02T05:35:58;20.90;;;9.98;;
74707;SDS011;63360;50.104;8.074;2024-03-02T05:38:24;20.95;;;9.93;;
74707;SDS011;63360;50.104;8.074;2024-03-02T05:40:51;22.58;;;10.45;;
74707;SDS011;63360;50.104;8.074;2024-03-02T05:43:17;20.77;;;10.38;;
74707;SDS011;63360;50.104;8.074;2024-03-02T05:45:44;21.13;;;9.93;;
74707;SDS011;63360;50.104;8.074;2024-03-02T05:48:10;20.80;;;10.13;;
74707;SDS011;63360;50.104;8.074;2024-03-02T05:50:37;23.45;;;11.38;;
74707;SDS011;63360;50.104;8.074;2024-03-02T05:53:03;22.15;;;11.15;;
74707;SDS011;63360;50.104;8.074;2024-03-02T05:55:30;23.38;;;11.25;;
74707;SDS011;63360;50.104;8.074;2024-03-02T05:57:57;23.13;;;11.23;;
74707;SDS011;63360;50.104;8.074;2024-03-02T06:00:32;20.30;;;10.50;;
74707;SDS011;63360;50.104;8.074;2024-03-02T06:02:59;21.77;;;10.57;;
74707;SDS011;63360;50.104;8.074;2024-03-02T06:05:26;24.58;;;11.65;;
74707;SDS011;63360;50.104;8.074;2024-03-02T06:07:52;23.75;;;10.40;;
74707;SDS011;63360;50.104;8.074;2024-03-02T06:10:19;22.90;;;11.00;;
74707;SDS011;63360;50.104;8.074;2024-03-02T06:12:45;21.98;;;10.90;;
74707;SDS011;63360;50.104;8.074;2024-03-02T06:15:11;21.48;;;10.30;;
74707;SDS011;63360;50.104;8.074;2024-03-02T06:17:38;23.83;;;11.13;;
74707;SDS011;63360;50.104;8.074;2024-03-02T06:20:05;22.98;;;10.23;;
74707;SDS011;63360;50.104;8.074;2024-03-02T06:22:34;19.93;;;9.63;;
74707;SDS011;63360;50.104;8.074;2024-03-02T06:25:00;21.45;;;10.75;;
74707;SDS011;63360;50.104;8.074;2024-03-02T06:27:27;21.70;;;10.00;;
74707;SDS011;63360;50.104;8.074;2024-03-02T06:29:53;21.08;;;10.43;;
74707;SDS011;63360;50.104;8.074;2024-03-02T06:32:21;20.20;;;10.07;;
74707;SDS011;63360;50.104;8.074;2024-03-02T06:34:47;19.60;;;9.90;;
74707;SDS011;63360;50.104;8.074;2024-03-02T06:37:13;21.75;;;10.15;;
74707;SDS011;63360;50.104;8.074;2024-03-02T06:39:42;18.63;;;9.73;;
74707;SDS011;63360;50.104;8.074;2024-03-02T06:42:09;18.05;;;9.40;;
74707;SDS011;63360;50.104;8.074;2024-03-02T06:44:35;18.90;;;9.18;;
74707;SDS011;63360;50.104;8.074;2024-03-02T06:47:02;18.60;;;9.27;;
74707;SDS011;63360;50.104;8.074;2024-03-02T06:49:28;18.10;;;9.02;;
74707;SDS011;63360;50.104;8.074;2024-03-02T06:51:54;17.27;;;8.23;;
74707;SDS011;63360;50.104;8.074;2024-03-02T06:54:21;18.30;;;8.63;;
74707;SDS011;63360;50.104;8.074;2024-03-02T06:56:48;17.55;;;8.48;;
74707;SDS011;63360;50.104;8.074;2024-03-02T06:59:14;16.57;;;8.07;;
74707;SDS011;63360;50.104;8.074;2024-03-02T07:01:41;17.55;;;8.32;;
74707;SDS011;63360;50.104;8.074;2024-03-02T07:04:08;15.02;;;8.07;;
74707;SDS011;63360;50.104;8.074;2024-03-02T07:06:34;17.45;;;8.18;;
74707;SDS011;63360;50.104;8.074;2024-03-02T07:09:00;15.82;;;7.80;;
74707;SDS011;63360;50.104;8.074;2024-03-02T07:11:27;16.80;;;8.30;;
74707;SDS011;63360;50.104;8.074;2024-03-02T07:13:53;17.27;;;8.30;;
74707;SDS011;63360;50.104;8.074;2024-03-02T07:16:19;17.88;;;8.13;;
74707;SDS011;63360;50.104;8.074;2024-03-02T07:18:58;16.02;;;7.60;;
74707;SDS011;63360;50.104;8.074;2024-03-02T07:21:25;16.45;;;7.40;;
74707;SDS011;63360;50.104;8.074;2024-03-02T07:23:51;15.07;;;7.33;;
74707;SDS011;63360;50.104;8.074;2024-03-02T07:26:18;13.98;;;7.45;;
74707;SDS011;63360;50.104;8.074;2024-03-02T07:28:47;15.57;;;7.72;;
74707;SDS011;63360;50.104;8.074;2024-03-02T07:31:15;15.05;;;7.53;;
74707;SDS011;63360;50.104;8.074;2024-03-02T07:33:43;15.30;;;7.03;;
74707;SDS011;63360;50.104;8.074;2024-03-02T07:36:10;14.70;;;6.90;;
74707;SDS011;63360;50.104;8.074;2024-03-02T07:38:37;13.73;;;7.03;;
74707;SDS011;63360;50.104;8.074;2024-03-02T07:41:03;17.38;;;7.28;;
74707;SDS011;63360;50.104;8.074;2024-03-02T07:43:30;11.70;;;6.32;;
74707;SDS011;63360;50.104;8.074;2024-03-02T07:45:59;15.45;;;6.88;;
74707;SDS011;63360;50.104;8.074;2024-03-02T07:48:25;14.33;;;7.00;;
74707;SDS011;63360;50.104;8.074;2024-03-02T07:50:53;15.40;;;6.97;;
74707;SDS011;63360;50.104;8.074;2024-03-02T07:53:19;13.40;;;6.47;;
74707;SDS011;63360;50.104;8.074;2024-03-02T07:55:45;13.45;;;6.93;;
74707;SDS011;63360;50.104;8.074;2024-03-02T07:58:12;13.95;;;6.80;;
74707;SDS011;63360;50.104;8.074;2024-03-02T08:00:39;14.67;;;7.07;;
74707;SDS011;63360;50.104;8.074;2024-03-02T08:03:06;12.60;;;6.35;;
74707;SDS011;63360;50.104;8.074;2024-03-02T08:05:33;13.57;;;6.57;;
74707;SDS011;63360;50.104;8.074;2024-03-02T08:07:59;11.95;;;6.05;;
74707;SDS011;63360;50.104;8.074;2024-03-02T08:10:26;12.50;;;6.30;;
74707;SDS011;63360;50.104;8.074;2024-03-02T08:12:52;12.87;;;6.27;;
74707;SDS011;63360;50.104;8.074;2024-03-02T08:15:18;13.82;;;6.38;;
74707;SDS011;63360;50.104;8.074;2024-03-02T08:17:45;12.80;;;6.70;;
74707;SDS011;63360;50.104;8.074;2024-03-02T08:20:15;12.88;;;6.38;;
74707;SDS011;63360;50.104;8.074;2024-03-02T08:22:41;13.18;;;6.18;;
74707;SDS011;63360;50.104;8.074;2024-03-02T08:25:08;12.17;;;6.47;;
74707;SDS011;63360;50.104;8.074;2024-03-02T08:27:35;13.27;;;6.80;;
74707;SDS011;63360;50.104;8.074;2024-03-02T08:30:02;12.32;;;6.18;;
74707;SDS011;63360;50.104;8.074;2024-03-02T08:32:32;11.93;;;5.85;;
74707;SDS011;63360;50.104;8.074;2024-03-02T08:34:59;11.88;;;5.72;;
74707;SDS011;63360;50.104;8.074;2024-03-02T08:37:25;11.73;;;5.83;;
74707;SDS011;63360;50.104;8.074;2024-03-02T08:39:51;10.95;;;5.75;;
74707;SDS011;63360;50.104;8.074;2024-03-02T08:42:18;11.40;;;5.40;;
74707;SDS011;63360;50.104;8.074;2024-03-02T08:44:44;10.23;;;5.28;;
74707;SDS011;63360;50.104;8.074;2024-03-02T08:47:11;9.80;;;5.18;;
74707;SDS011;63360;50.104;8.074;2024-03-02T08:49:37;10.20;;;5.00;;
74707;SDS011;63360;50.104;8.074;2024-03-02T08:52:04;8.98;;;4.88;;
74707;SDS011;63360;50.104;8.074;2024-03-02T08:54:30;11.35;;;5.05;;
74707;SDS011;63360;50.104;8.074;2024-03-02T08:56:57;9.30;;;4.60;;
74707;SDS011;63360;50.104;8.074;2024-03-02T08:59:24;8.45;;;4.57;;
74707;SDS011;63360;50.104;8.074;2024-03-02T09:01:51;11.00;;;5.20;;
74707;SDS011;63360;50.104;8.074;2024-03-02T09:04:17;9.05;;;5.20;;
74707;SDS011;63360;50.104;8.074;2024-03-02T09:06:44;9.63;;;5.18;;
74707;SDS011;63360;50.104;8.074;2024-03-02T09:09:10;9.30;;;4.85;;
74707;SDS011;63360;50.104;8.074;2024-03-02T09:11:37;8.98;;;5.00;;
74707;SDS011;63360;50.104;8.074;2024-03-02T09:14:03;8.70;;;4.50;;
74707;SDS011;63360;50.104;8.074;2024-03-02T09:16:31;9.38;;;4.80;;
74707;SDS011;63360;50.104;8.074;2024-03-02T09:18:57;8.50;;;4.80;;
74707;SDS011;63360;50.104;8.074;2024-03-02T09:21:24;9.63;;;4.82;;
74707;SDS011;63360;50.104;8.074;2024-03-02T09:23:51;9.65;;;5.30;;
74707;SDS011;63360;50.104;8.074;2024-03-02T09:26:17;10.93;;;5.20;;
74707;SDS011;63360;50.104;8.074;2024-03-02T09:28:45;9.27;;;5.03;;
74707;SDS011;63360;50.104;8.074;2024-03-02T09:31:12;8.73;;;4.47;;
74707;SDS011;63360;50.104;8.074;2024-03-02T09:33:38;9.73;;;5.00;;
74707;SDS011;63360;50.104;8.074;2024-03-02T09:36:17;9.50;;;5.07;;
74707;SDS011;63360;50.104;8.074;2024-03-02T09:38:44;10.80;;;5.10;;
74707;SDS011;63360;50.104;8.074;2024-03-02T09:41:11;9.23;;;5.03;;
74707;SDS011;63360;50.104;8.074;2024-03-02T09:43:38;8.23;;;4.50;;
74707;SDS011;63360;50.104;8.074;2024-03-02T09:46:04;10.35;;;5.03;;
74707;SDS011;63360;50.104;8.074;2024-03-02T09:48:31;9.45;;;4.85;;
74707;SDS011;63360;50.104;8.074;2024-03-02T09:50:57;9.40;;;4.67;;
74707;SDS011;63360;50.104;8.074;2024-03-02T09:53:25;10.00;;;4.93;;
74707;SDS011;63360;50.104;8.074;2024-03-02T09:55:55;10.07;;;4.85;;
74707;SDS011;63360;50.104;8.074;2024-03-02T09:58:21;10.57;;;5.10;;
74707;SDS011;63360;50.104;8.074;2024-03-02T10:00:47;10.23;;;5.57;;
74707;SDS011;63360;50.104;8.074;2024-03-02T10:03:15;10.57;;;5.37;;
74707;SDS011;63360;50.104;8.074;2024-03-02T10:05:44;10.30;;;5.78;;
74707;SDS011;63360;50.104;8.074;2024-03-02T10:08:10;10.73;;;5.80;;
74707;SDS011;63360;50.104;8.074;2024-03-02T10:10:40;11.75;;;6.25;;
74707;SDS011;63360;50.104;8.074;2024-03-02T10:13:08;10.13;;;5.32;;
74707;SDS011;63360;50.104;8.074;2024-03-02T10:15:39;11.60;;;5.73;;
74707;SDS011;63360;50.104;8.074;2024-03-02T10:18:10;11.20;;;5.55;;
74707;SDS011;63360;50.104;8.074;2024-03-02T10:20:41;9.25;;;5.20;;
74707;SDS011;63360;50.104;8.074;2024-03-02T10:23:11;10.63;;;5.75;;
74707;SDS011;63360;50.104;8.074;2024-03-02T10:25:39;13.02;;;5.50;;
74707;SDS011;63360;50.104;8.074;2024-03-02T10:28:19;10.63;;;5.20;;
74707;SDS011;63360;50.104;8.074;2024-03-02T10:30:47;11.00;;;5.75;;
74707;SDS011;63360;50.104;8.074;2024-03-02T10:33:15;21.23;;;8.45;;
74707;SDS011;63360;50.104;8.074;2024-03-02T10:35:43;11.70;;;5.80;;
74707;SDS011;63360;50.104;8.074;2024-03-02T10:38:10;10.25;;;5.55;;
74707;SDS011;63360;50.104;8.074;2024-03-02T10:40:38;11.33;;;5.83;;
74707;SDS011;63360;50.104;8.074;2024-03-02T10:43:04;10.95;;;5.65;;
74707;SDS011;63360;50.104;8.074;2024-03-02T10:45:32;12.45;;;6.50;;
74707;SDS011;63360;50.104;8.074;2024-03-02T10:47:58;12.88;;;6.72;;
74707;SDS011;63360;50.104;8.074;2024-03-02T10:50:27;13.32;;;6.88;;
74707;SDS011;63360;50.104;8.074;2024-03-02T10:52:54;11.37;;;6.20;;
74707;SDS011;63360;50.104;8.074;2024-03-02T10:55:21;12.68;;;6.07;;
74707;SDS011;63360;50.104;8.074;2024-03-02T10:57:51;13.27;;;6.45;;
74707;SDS011;63360;50.104;8.074;2024-03-02T11:00:24;11.60;;;6.15;;
74707;SDS011;63360;50.104;8.074;2024-03-02T11:02:56;11.15;;;5.70;;
74707;SDS011;63360;50.104;8.074;2024-03-02T11:05:28;11.97;;;5.90;;
74707;SDS011;63360;50.104;8.074;2024-03-02T11:08:00;12.63;;;6.53;;
74707;SDS011;63360;50.104;8.074;2024-03-02T11:10:51;14.00;;;6.30;;
74707;SDS011;63360;50.104;8.074;2024-03-02T11:13:24;11.50;;;6.05;;
74707;SDS011;63360;50.104;8.074;2024-03-02T11:15:55;12.18;;;6.30;;
74707;SDS011;63360;50.104;8.074;2024-03-02T11:18:28;12.50;;;6.07;;
74707;SDS011;63360;50.104;8.074;2024-03-02T11:20:56;10.98;;;6.20;;
74707;SDS011;63360;50.104;8.074;2024-03-02T11:23:31;10.75;;;5.47;;
74707;SDS011;63360;50.104;8.074;2024-03-02T11:28:45;10.63;;;5.30;;
74707;SDS011;63360;50.104;8.074;2024-03-02T11:31:12;12.00;;;5.70;;
74707;SDS011;63360;50.104;8.074;2024-03-02T11:33:38;10.75;;;5.70;;
74707;SDS011;63360;50.104;8.074;2024-03-02T11:36:08;10.95;;;5.97;;
74707;SDS011;63360;50.104;8.074;2024-03-02T11:38:37;10.70;;;6.00;;
74707;SDS011;63360;50.104;8.074;2024-03-02T11:41:07;10.43;;;5.47;;
74707;SDS011;63360;50.104;8.074;2024-03-02T11:43:38;10.77;;;5.30;;
74707;SDS011;63360;50.104;8.074;2024-03-02T11:46:07;9.50;;;4.60;;
74707;SDS011;63360;50.104;8.074;2024-03-02T11:48:35;8.10;;;4.30;;
74707;SDS011;63360;50.104;8.074;2024-03-02T11:51:04;7.75;;;3.85;;
74707;SDS011;63360;50.104;8.074;2024-03-02T11:53:30;9.50;;;4.22;;
74707;SDS011;63360;50.104;8.074;2024-03-02T11:56:01;9.73;;;4.17;;
74707;SDS011;63360;50.104;8.074;2024-03-02T11:58:28;8.85;;;4.25;;
74707;SDS011;63360;50.104;8.074;2024-03-02T12:00:55;9.30;;;4.30;;
74707;SDS011;63360;50.104;8.074;2024-03-02T12:03:23;7.85;;;4.20;;
74707;SDS011;63360;50.104;8.074;2024-03-02T12:05:55;7.82;;;4.00;;
74707;SDS011;63360;50.104;8.074;2024-03-02T12:08:21;7.30;;;3.60;;
74707;SDS011;63360;50.104;8.074;2024-03-02T12:11:07;8.10;;;3.83;;
74707;SDS011;63360;50.104;8.074;2024-03-02T12:13:34;7.72;;;3.80;;
74707;SDS011;63360;50.104;8.074;2024-03-02T12:16:00;6.95;;;3.42;;
74707;SDS011;63360;50.104;8.074;2024-03-02T12:18:27;7.88;;;3.63;;
74707;SDS011;63360;50.104;8.074;2024-03-02T12:20:53;7.20;;;3.33;;
74707;SDS011;63360;50.104;8.074;2024-03-02T12:23:23;7.68;;;4.00;;
74707;SDS011;63360;50.104;8.074;2024-03-02T12:25:50;7.97;;;3.50;;
74707;SDS011;63360;50.104;8.074;2024-03-02T12:28:18;7.97;;;3.35;;
74707;SDS011;63360;50.104;8.074;2024-03-02T12:30:45;6.10;;;3.15;;
74707;SDS011;63360;50.104;8.074;2024-03-02T12:33:13;6.03;;;2.90;;
74707;SDS011;63360;50.104;8.074;2024-03-02T12:35:40;6.72;;;2.60;;
74707;SDS011;63360;50.104;8.074;2024-03-02T12:38:07;6.65;;;2.97;;
74707;SDS011;63360;50.104;8.074;2024-03-02T12:40:33;8.52;;;4.18;;
74707;SDS011;63360;50.104;8.074;2024-03-02T12:43:00;8.77;;;4.40;;
74707;SDS011;63360;50.104;8.074;2024-03-02T12:45:27;7.63;;;4.03;;
74707;SDS011;63360;50.104;8.074;2024-03-02T12:47:53;10.15;;;4.40;;
74707;SDS011;63360;50.104;8.074;2024-03-02T12:50:20;9.32;;;4.10;;
74707;SDS011;63360;50.104;8.074;2024-03-02T12:52:50;7.60;;;3.90;;
74707;SDS011;63360;50.104;8.074;2024-03-02T12:55:21;8.35;;;3.00;;
74707;SDS011;63360;50.104;8.074;2024-03-02T12:57:51;6.77;;;2.63;;
74707;SDS011;63360;50.104;8.074;2024-03-02T13:00:20;4.90;;;2.25;;
74707;SDS011;63360;50.104;8.074;2024-03-02T13:02:48;4.75;;;1.92;;
74707;SDS011;63360;50.104;8.074;2024-03-02T13:05:16;5.22;;;2.30;;
74707;SDS011;63360;50.104;8.074;2024-03-02T13:07:43;5.28;;;2.50;;
74707;SDS011;63360;50.104;8.074;2024-03-02T13:10:11;4.63;;;2.33;;
74707;SDS011;63360;50.104;8.074;2024-03-02T13:12:38;6.63;;;2.83;;
74707;SDS011;63360;50.104;8.074;2024-03-02T13:15:04;7.78;;;2.78;;
74707;SDS011;63360;50.104;8.074;2024-03-02T13:17:34;6.38;;;3.30;;
74707;SDS011;63360;50.104;8.074;2024-03-02T13:20:04;6.10;;;3.10;;
74707;SDS011;63360;50.104;8.074;2024-03-02T13:22:34;5.60;;;2.90;;
74707;SDS011;63360;50.104;8.074;2024-03-02T13:25:01;8.27;;;3.60;;
74707;SDS011;63360;50.104;8.074;2024-03-02T13:27:30;7.30;;;2.92;;
74707;SDS011;63360;50.104;8.074;2024-03-02T13:29:58;5.57;;;2.92;;
74707;SDS011;63360;50.104;8.074;2024-03-02T13:32:24;6.20;;;2.90;;
74707;SDS011;63360;50.104;8.074;2024-03-02T13:34:51;8.93;;;3.43;;
74707;SDS011;63360;50.104;8.074;2024-03-02T13:37:18;7.35;;;3.33;;
74707;SDS011;63360;50.104;8.074;2024-03-02T13:39:44;7.18;;;3.10;;
74707;SDS011;63360;50.104;8.074;2024-03-02T13:42:11;6.55;;;3.20;;
74707;SDS011;63360;50.104;8.074;2024-03-02T13:44:40;6.40;;;2.90;;
74707;SDS011;63360;50.104;8.074;2024-03-02T13:47:10;7.27;;;3.40;;
74707;SDS011;63360;50.104;8.074;2024-03-02T13:49:36;6.55;;;2.85;;
74707;SDS011;63360;50.104;8.074;2024-03-02T13:52:05;5.80;;;2.55;;
74707;SDS011;63360;50.104;8.074;2024-03-02T13:54:44;4.47;;;2.10;;
74707;SDS011;63360;50.104;8.074;2024-03-02T13:57:12;5.47;;;2.20;;
74707;SDS011;63360;50.104;8.074;2024-03-02T13:59:39;5.87;;;2.73;;
74707;SDS011;63360;50.104;8.074;2024-03-02T14:02:08;4.38;;;2.00;;
74707;SDS011;63360;50.104;8.074;2024-03-02T14:04:35;4.72;;;2.15;;
74707;SDS011;63360;50.104;8.074;2024-03-02T14:07:02;4.40;;;2.20;;
74707;SDS011;63360;50.104;8.074;2024-03-02T14:09:29;5.57;;;2.50;;
74707;SDS011;63360;50.104;8.074;2024-03-02T14:11:56;4.93;;;2.03;;
74707;SDS011;63360;50.104;8.074;2024-03-02T14:14:22;4.70;;;2.20;;
74707;SDS011;63360;50.104;8.074;2024-03-02T14:16:49;7.82;;;2.28;;
74707;SDS011;63360;50.104;8.074;2024-03-02T14:19:15;4.53;;;2.03;;
74707;SDS011;63360;50.104;8.074;2024-03-02T14:21:42;4.13;;;1.85;;
74707;SDS011;63360;50.104;8.074;2024-03-02T14:24:08;4.17;;;1.87;;
74707;SDS011;63360;50.104;8.074;2024-03-02T14:26:36;3.90;;;2.08;;
74707;SDS011;63360;50.104;8.074;2024-03-02T14:29:03;6.53;;;1.80;;
74707;SDS011;63360;50.104;8.074;2024-03-02T14:31:30;5.15;;;2.05;;
74707;SDS011;63360;50.104;8.074;2024-03-02T14:33:57;4.85;;;1.90;;
74707;SDS011;63360;50.104;8.074;2024-03-02T14:36:24;5.13;;;1.70;;
74707;SDS011;63360;50.104;8.074;2024-03-02T14:38:50;5.55;;;1.80;;
74707;SDS011;63360;50.104;8.074;2024-03-02T14:41:17;4.78;;;2.20;;
74707;SDS011;63360;50.104;8.074;2024-03-02T14:43:43;4.75;;;2.00;;